Time;durP1;ratioP1;P1;durP2;ratioP2;P2;SDS_P1;SDS_P2;PMS_P1;PMS_P2;Temp;Humidity;BMP_temperature;BMP_pressure;BME280_temperature;BME280_humidity;BME280_pressure;Samples;Min_cycle;Max_cycle;Signal;HPM_P1;HPM_P2
2024/03/14 00:01:36;;;;;;;14.55;6.57;;;10.40;99.90;;;;;;5001694;28;20076;-65
2024/03/14 00:04:03;;;;;;;8.40;6.38;;;10.40;99.90;;;;;;5001374;28;20049;-65
2024/03/14 00:06:30;;;;;;;8.00;6.20;;;10.40;99.90;;;;;;4984275;28;20066;-65
2024/03/14 00:08:56;;;;;;;7.10;6.35;;;10.40;99.90;;;;;;5004395;28;20092;-65
2024/03/14 00:11:22;;;;;;;10.05;6.65;;;10.40;99.90;;;;;;5000904;28;20076;-65
2024/03/14 00:13:50;;;;;;;14.82;7.28;;;10.40;99.90;;;;;;5001492;28;20058;-65
2024/03/14 00:16:17;;;;;;;11.65;6.95;;;10.40;99.90;;;;;;5002996;28;20111;-65
2024/03/14 00:18:44;;;;;;;10.07;6.75;;;10.40;99.90;;;;;;5002818;28;20053;-65
2024/03/14 00:21:09;;;;;;;11.82;6.82;;;10.40;99.90;;;;;;5004126;28;20500;-65
2024/03/14 00:23:36;;;;;;;10.75;6.95;;;10.40;99.90;;;;;;4996217;28;20046;-65
2024/03/14 00:26:02;;;;;;;9.07;6.60;;;10.30;99.90;;;;;;4999505;28;20096;-65
2024/03/14 00:28:28;;;;;;;10.57;6.13;;;10.30;99.90;;;;;;4999045;28;20073;-65
2024/03/14 00:30:53;;;;;;;9.32;6.05;;;10.40;99.90;;;;;;5003678;28;20656;-65
2024/03/14 00:33:19;;;;;;;9.55;7.13;;;10.40;99.90;;;;;;5002342;28;20045;-65
2024/03/14 00:35:45;;;;;;;8.93;6.68;;;10.40;99.90;;;;;;4990970;28;20034;-65
2024/03/14 00:38:10;;;;;;;8.82;6.47;;;10.40;99.90;;;;;;4987016;28;20042;-65
2024/03/14 00:40:37;;;;;;;7.90;6.10;;;10.40;99.90;;;;;;5001934;28;20600;-65
2024/03/14 00:43:02;;;;;;;8.23;6.03;;;10.40;99.90;;;;;;4986218;28;20053;-65
2024/03/14 00:45:28;;;;;;;10.20;6.38;;;10.40;99.90;;;;;;4997428;28;20046;-65
2024/03/14 00:47:56;;;;;;;7.57;6.03;;;10.40;99.90;;;;;;5003743;28;20115;-65
2024/03/14 00:50:22;;;;;;;15.40;7.03;;;10.40;99.90;;;;;;4982137;28;20085;-65
2024/03/14 00:52:49;;;;;;;8.55;6.45;;;10.40;99.90;;;;;;5001524;28;20049;-65
2024/03/14 00:55:16;;;;;;;9.10;5.88;;;10.40;99.90;;;;;;5002744;28;20042;-65
2024/03/14 00:57:42;;;;;;;10.05;5.53;;;10.40;99.90;;;;;;4976192;28;20132;-65
2024/03/14 01:00:13;;;;;;;9.75;5.97;;;10.40;99.90;;;;;;5002777;28;20046;-65
2024/03/14 01:02:41;;;;;;;7.35;5.32;;;10.40;99.90;;;;;;4999244;28;20327;-65
2024/03/14 01:05:08;;;;;;;7.45;5.53;;;10.40;99.90;;;;;;4991044;28;20058;-65
2024/03/14 01:07:34;;;;;;;7.70;5.57;;;10.40;99.90;;;;;;5001446;28;20154;-65
2024/03/14 01:10:00;;;;;;;7.45;4.95;;;10.30;99.90;;;;;;5003056;28;20140;-65
2024/03/14 01:12:25;;;;;;;8.70;5.50;;;10.30;99.90;;;;;;5003094;28;20045;-65
2024/03/14 01:14:51;;;;;;;6.05;4.80;;;10.40;99.90;;;;;;5001432;28;20598;-65
2024/03/14 01:17:17;;;;;;;6.55;4.65;;;10.30;99.90;;;;;;5001492;28;20488;-65
2024/03/14 01:19:43;;;;;;;7.13;4.78;;;10.30;99.90;;;;;;5001203;28;20049;-65
2024/03/14 01:22:09;;;;;;;12.55;5.38;;;10.30;99.90;;;;;;4985475;28;20050;-65
2024/03/14 01:24:37;;;;;;;7.18;4.40;;;10.30;99.90;;;;;;5001405;28;20061;-65
2024/03/14 01:27:03;;;;;;;6.85;4.15;;;10.30;99.90;;;;;;5001023;28;20050;-65
2024/03/14 01:29:35;;;;;;;8.05;4.75;;;10.30;99.90;;;;;;4996622;28;20050;-65
2024/03/14 01:32:01;;;;;;;12.02;4.72;;;10.30;99.90;;;;;;5001167;28;20064;-65
2024/03/14 01:34:27;;;;;;;8.35;3.67;;;10.30;99.90;;;;;;4985064;28;20061;-65
2024/03/14 01:36:59;;;;;;;7.32;4.38;;;10.30;99.90;;;;;;4981781;28;20104;-65
2024/03/14 01:39:24;;;;;;;10.45;4.53;;;10.30;99.90;;;;;;4982607;28;20046;-65
2024/03/14 01:41:51;;;;;;;6.10;4.15;;;10.30;99.90;;;;;;4999829;28;20546;-65
2024/03/14 01:44:17;;;;;;;5.13;4.50;;;10.30;99.90;;;;;;5001903;28;20057;-65
2024/03/14 01:46:43;;;;;;;6.47;3.97;;;10.30;99.90;;;;;;5000739;28;20033;-65
2024/03/14 01:49:10;;;;;;;5.40;3.58;;;10.30;99.90;;;;;;5001811;28;20540;-64
2024/03/14 01:51:35;;;;;;;7.20;4.38;;;10.30;99.90;;;;;;5002828;28;20088;-65
2024/03/14 01:54:01;;;;;;;22.42;4.50;;;10.20;99.90;;;;;;4996781;28;20380;-65
2024/03/14 01:56:27;;;;;;;7.60;4.90;;;10.20;99.90;;;;;;5002068;28;20081;-65
2024/03/14 01:58:53;;;;;;;8.23;4.80;;;10.20;99.90;;;;;;4982594;28;20042;-65
2024/03/14 02:01:23;;;;;;;6.10;4.00;;;10.30;99.90;;;;;;5000964;28;20145;-65
2024/03/14 02:04:08;;;;;;;;;;;10.20;99.90;;;;;;4983592;28;20213;-65
2024/03/14 02:06:51;;;;;;;4.28;3.50;;;10.30;99.90;;;;;;5000831;28;19921;-65
2024/03/14 02:09:22;;;;;;;12.18;4.55;;;10.30;99.90;;;;;;5000850;28;20046;-65
2024/03/14 02:11:49;;;;;;;6.25;4.40;;;10.20;99.90;;;;;;5000911;28;20038;-65
2024/03/14 02:14:15;;;;;;;7.22;3.92;;;10.20;99.90;;;;;;5002223;28;20062;-65
2024/03/14 02:16:41;;;;;;;7.00;4.35;;;10.20;99.90;;;;;;5001169;28;20151;-65
2024/03/14 02:19:07;;;;;;;7.97;4.25;;;10.20;99.90;;;;;;4982486;28;20096;-65
2024/03/14 02:21:34;;;;;;;7.90;4.40;;;10.20;99.90;;;;;;4998408;28;20041;-65
2024/03/14 02:24:00;;;;;;;7.72;4.20;;;10.20;99.90;;;;;;5000696;28;20398;-65
2024/03/14 02:26:26;;;;;;;4.80;3.83;;;10.10;99.90;;;;;;5002708;28;20053;-65
2024/03/14 02:28:52;;;;;;;5.00;3.63;;;10.10;99.90;;;;;;4999070;28;20254;-65
2024/03/14 02:31:18;;;;;;;7.22;3.88;;;10.10;99.90;;;;;;4988219;28;20046;-65
2024/03/14 02:33:44;;;;;;;4.85;3.72;;;10.00;99.90;;;;;;4997175;28;20030;-65
2024/03/14 02:36:10;;;;;;;6.43;4.13;;;10.00;99.90;;;;;;5001354;28;20538;-65
2024/03/14 02:38:36;;;;;;;7.15;3.67;;;10.00;99.90;;;;;;4994985;28;20053;-65
2024/03/14 02:41:03;;;;;;;6.95;4.00;;;9.90;99.90;;;;;;5002824;28;20558;-65
2024/03/14 02:43:28;;;;;;;6.72;3.90;;;9.90;99.90;;;;;;5005011;28;20042;-65
2024/03/14 02:45:54;;;;;;;4.90;4.13;;;9.90;99.90;;;;;;4996635;28;20038;-65
2024/03/14 02:48:20;;;;;;;8.65;3.78;;;9.90;99.90;;;;;;5005802;28;20153;-65
2024/03/14 02:50:45;;;;;;;8.38;4.53;;;9.90;99.90;;;;;;5004256;28;20084;-65
2024/03/14 02:53:14;;;;;;;9.13;4.10;;;9.90;99.90;;;;;;5005458;28;20056;-65
2024/03/14 02:55:40;;;;;;;6.55;4.18;;;9.90;99.90;;;;;;4987729;28;20076;-65
2024/03/14 02:58:08;;;;;;;5.05;3.60;;;9.80;99.90;;;;;;4986829;28;20078;-65
2024/03/14 03:00:34;;;;;;;5.75;3.92;;;9.80;99.90;;;;;;4995801;28;20042;-65
2024/03/14 03:03:00;;;;;;;4.53;3.78;;;9.80;99.90;;;;;;5003518;28;20112;-65
2024/03/14 03:05:26;;;;;;;5.90;3.55;;;9.80;99.90;;;;;;5000601;28;20053;-65
2024/03/14 03:07:54;;;;;;;5.53;3.85;;;9.80;99.90;;;;;;4983112;28;20133;-65
2024/03/14 03:10:22;;;;;;;5.68;4.47;;;9.70;99.90;;;;;;4984195;28;20060;-65
2024/03/14 03:12:49;;;;;;;10.07;4.55;;;9.70;99.90;;;;;;4986330;28;20045;-64
2024/03/14 03:15:14;;;;;;;7.38;4.35;;;9.70;99.90;;;;;;5001649;28;20089;-65
2024/03/14 03:17:40;;;;;;;4.45;4.03;;;9.70;99.90;;;;;;5001683;28;20073;-65
2024/03/14 03:20:12;;;;;;;8.57;5.07;;;9.60;99.90;;;;;;5004123;28;20088;-65
2024/03/14 03:25:24;;;;;;;8.25;4.70;;;9.60;99.90;;;;;;5003357;28;20049;-65
2024/03/14 03:27:49;;;;;;;5.90;4.43;;;9.60;99.90;;;;;;4999714;28;20108;-65
2024/03/14 03:30:16;;;;;;;5.88;4.45;;;9.60;99.90;;;;;;5005086;28;20602;-65
2024/03/14 03:32:45;;;;;;;7.22;4.50;;;9.60;99.90;;;;;;4997328;28;20484;-65
2024/03/14 03:35:11;;;;;;;7.38;4.22;;;9.60;99.90;;;;;;4984107;28;20057;-65
2024/03/14 03:37:37;;;;;;;5.85;5.07;;;9.60;99.90;;;;;;4996932;28;20396;-65
2024/03/14 03:40:13;;;;;;;5.03;4.50;;;9.50;99.90;;;;;;5004406;28;20057;-65
2024/03/14 03:42:39;;;;;;;7.32;5.32;;;9.50;99.90;;;;;;5002514;28;20049;-65
2024/03/14 03:45:09;;;;;;;7.13;5.10;;;9.50;99.90;;;;;;5005132;28;20137;-65
2024/03/14 03:47:36;;;;;;;9.43;5.47;;;9.50;99.90;;;;;;5003150;28;20050;-65
2024/03/14 03:50:03;;;;;;;5.85;4.95;;;9.50;99.90;;;;;;5003464;28;20128;-65
2024/03/14 03:52:31;;;;;;;6.90;5.45;;;9.40;99.90;;;;;;5005228;28;20050;-65
2024/03/14 03:54:58;;;;;;;7.32;5.05;;;9.40;99.90;;;;;;5003211;28;20052;-65
2024/03/14 03:57:24;;;;;;;7.20;4.93;;;9.40;99.90;;;;;;5003820;28;20151;-65
2024/03/14 03:59:51;;;;;;;6.00;4.95;;;9.40;99.90;;;;;;4982807;28;20047;-65
2024/03/14 04:02:19;;;;;;;7.40;5.43;;;9.30;99.90;;;;;;5004180;28;20042;-65
2024/03/14 04:04:45;;;;;;;8.23;5.60;;;9.30;99.90;;;;;;4986687;28;20064;-65
2024/03/14 04:07:14;;;;;;;8.45;5.65;;;9.30;99.90;;;;;;5001106;28;20034;-65
2024/03/14 04:09:46;;;;;;;9.68;5.53;;;9.30;99.90;;;;;;5004671;28;20228;-65
2024/03/14 04:12:14;;;;;;;8.90;5.03;;;9.20;99.90;;;;;;5001532;28;20577;-65
2024/03/14 04:14:43;;;;;;;8.75;5.45;;;9.20;99.90;;;;;;5004543;28;20115;-65
2024/03/14 04:17:11;;;;;;;7.60;6.53;;;9.20;99.90;;;;;;5001217;28;20408;-65
2024/03/14 04:19:37;;;;;;;7.25;5.93;;;9.10;99.90;;;;;;5003693;28;20157;-65
2024/03/14 04:22:05;;;;;;;9.82;6.20;;;9.10;99.90;;;;;;5002481;28;20492;-65
2024/03/14 04:24:32;;;;;;;9.30;6.57;;;9.10;99.90;;;;;;5003110;28;20412;-65
2024/03/14 04:26:58;;;;;;;9.10;5.82;;;9.10;99.90;;;;;;5004094;28;20053;-65
2024/03/14 04:29:26;;;;;;;7.78;6.55;;;9.00;99.90;;;;;;5000941;28;20069;-65
2024/03/14 04:31:54;;;;;;;11.32;6.55;;;9.00;99.90;;;;;;5003101;28;20069;-65
2024/03/14 04:34:27;;;;;;;12.93;7.30;;;9.00;99.90;;;;;;4983635;28;20054;-65
2024/03/14 04:36:53;;;;;;;9.20;6.55;;;9.00;99.90;;;;;;5004599;28;20103;-65
2024/03/14 04:39:19;;;;;;;10.75;7.85;;;9.00;99.90;;;;;;5002326;28;20050;-65
2024/03/14 04:41:45;;;;;;;9.88;7.28;;;9.00;99.90;;;;;;5003389;28;20077;-65
2024/03/14 04:44:11;;;;;;;11.25;7.60;;;9.00;99.90;;;;;;5003492;28;20053;-65
2024/03/14 04:46:41;;;;;;;9.02;7.22;;;9.00;99.90;;;;;;5002124;28;20510;-65
2024/03/14 04:49:13;;;;;;;11.13;7.82;;;9.00;99.90;;;;;;5000600;28;20135;-65
2024/03/14 04:51:39;;;;;;;12.60;7.95;;;8.90;99.90;;;;;;4989878;28;20080;-65
2024/03/14 04:54:05;;;;;;;14.43;8.00;;;8.90;99.90;;;;;;5003385;28;20042;-65
2024/03/14 04:56:30;;;;;;;12.07;7.93;;;9.00;99.90;;;;;;5003042;28;20050;-65
2024/03/14 04:59:01;;;;;;;9.50;7.13;;;9.00;99.90;;;;;;4981971;28;20445;-65
2024/03/14 05:01:29;;;;;;;12.15;7.30;;;8.90;99.90;;;;;;5004423;28;20096;-65
2024/03/14 05:03:57;;;;;;;8.82;6.75;;;8.90;99.90;;;;;;5001280;28;20185;-65
2024/03/14 05:06:23;;;;;;;10.02;7.38;;;8.90;99.90;;;;;;5003630;28;20050;-65
2024/03/14 05:08:49;;;;;;;9.93;6.97;;;8.80;99.90;;;;;;4998788;28;20053;-65
2024/03/14 05:11:15;;;;;;;12.40;7.15;;;8.90;99.90;;;;;;5003257;28;20144;-65
2024/03/14 05:13:41;;;;;;;14.77;7.50;;;8.80;99.90;;;;;;4982298;28;20133;-65
2024/03/14 05:16:09;;;;;;;10.55;7.00;;;8.80;99.90;;;;;;4985234;28;20042;-65
2024/03/14 05:18:35;;;;;;;8.25;6.55;;;8.70;99.90;;;;;;5003399;28;20124;-65
2024/03/14 05:21:00;;;;;;;10.68;7.13;;;8.70;99.90;;;;;;5000655;28;20145;-65
2024/03/14 05:23:26;;;;;;;8.63;7.25;;;8.70;99.90;;;;;;5002423;28;20056;-65
2024/03/14 05:25:54;;;;;;;7.32;6.28;;;8.70;99.90;;;;;;5001945;28;20385;-65
2024/03/14 05:28:20;;;;;;;9.18;6.53;;;8.70;99.90;;;;;;5002144;28;20076;-65
2024/03/14 05:30:46;;;;;;;16.75;6.10;;;8.60;99.90;;;;;;4991332;28;20038;-65
2024/03/14 05:33:11;;;;;;;8.02;6.35;;;8.70;99.90;;;;;;4984873;28;20044;-65
2024/03/14 05:35:37;;;;;;;9.40;6.50;;;8.70;99.90;;;;;;5002515;28;20403;-65
2024/03/14 05:38:04;;;;;;;8.48;6.43;;;8.60;99.90;;;;;;5000537;28;20812;-65
2024/03/14 05:40:30;;;;;;;10.65;6.85;;;8.60;99.90;;;;;;5002648;28;20365;-65
2024/03/14 05:43:01;;;;;;;8.93;5.82;;;8.60;99.90;;;;;;4968067;28;20084;-65
2024/03/14 05:45:27;;;;;;;8.98;6.72;;;8.50;99.90;;;;;;5002809;28;20057;-65
2024/03/14 05:48:11;;;;;;;8.73;6.40;;;8.50;99.90;;;;;;5001125;28;20038;-65
2024/03/14 05:50:37;;;;;;;10.93;6.07;;;8.50;99.90;;;;;;4972935;28;20515;-65
2024/03/14 05:53:03;;;;;;;7.32;5.97;;;8.50;99.90;;;;;;4990936;28;20496;-65
2024/03/14 05:55:31;;;;;;;7.30;6.15;;;8.50;99.90;;;;;;5000877;28;20858;-66
2024/03/14 05:57:57;;;;;;;8.15;5.90;;;8.50;99.90;;;;;;5002655;28;20415;-65
2024/03/14 06:00:24;;;;;;;6.35;5.75;;;8.50;99.90;;;;;;4983592;28;20510;-65
2024/03/14 06:02:51;;;;;;;8.48;6.05;;;8.50;99.90;;;;;;4998474;28;20061;-65
2024/03/14 06:05:17;;;;;;;6.40;5.40;;;8.60;99.90;;;;;;4980506;28;20046;-65
2024/03/14 06:07:43;;;;;;;8.07;5.97;;;8.60;99.90;;;;;;5002596;28;20038;-65
2024/03/14 06:10:10;;;;;;;10.57;5.88;;;8.70;99.90;;;;;;4967598;28;20718;-65
2024/03/14 06:12:38;;;;;;;10.48;6.25;;;8.70;99.90;;;;;;4983237;28;20100;-65
2024/03/14 06:15:08;;;;;;;9.68;5.97;;;8.70;99.90;;;;;;5001576;28;20057;-65
2024/03/14 06:17:34;;;;;;;;;;;8.80;99.90;;;;;;5000650;28;20401;-65
2024/03/14 06:20:00;;;;;;;6.95;5.57;;;8.80;99.90;;;;;;5002448;28;19944;-65
2024/03/14 06:22:26;;;;;;;5.68;5.07;;;8.80;99.90;;;;;;5000080;28;20042;-65
2024/03/14 06:24:52;;;;;;;7.70;5.53;;;8.90;99.90;;;;;;4983857;28;20540;-65
2024/03/14 06:27:17;;;;;;;7.43;5.30;;;8.90;99.90;;;;;;5001174;28;20061;-65
2024/03/14 06:29:43;;;;;;;7.05;5.00;;;9.00;99.90;;;;;;5000772;28;20554;-65
2024/03/14 06:32:13;;;;;;;5.82;5.00;;;9.00;99.90;;;;;;4985089;28;20049;-65
2024/03/14 06:34:39;;;;;;;;;;;9.00;99.90;;;;;;5000473;28;20077;-65
2024/03/14 06:37:06;;;;;;;5.53;4.68;;;9.10;99.90;;;;;;4984545;28;19975;-65
2024/03/14 06:39:32;;;;;;;6.60;4.80;;;9.20;99.90;;;;;;4999876;28;20527;-65
2024/03/14 06:41:58;;;;;;;7.25;4.88;;;9.20;99.90;;;;;;4984906;28;20042;-65
2024/03/14 06:44:23;;;;;;;8.20;5.50;;;9.30;99.90;;;;;;4982251;28;20069;-65
2024/03/14 06:46:49;;;;;;;7.30;5.07;;;9.40;99.90;;;;;;4984326;28;20517;-65
2024/03/14 06:49:15;;;;;;;6.15;5.18;;;9.40;99.90;;;;;;5001394;28;20069;-65
2024/03/14 06:51:42;;;;;;;5.53;4.20;;;9.50;99.90;;;;;;5000615;28;20107;-65
2024/03/14 06:54:08;;;;;;;11.75;5.30;;;9.50;99.90;;;;;;5001807;28;20046;-65
2024/03/14 06:56:35;;;;;;;9.82;5.55;;;9.60;99.90;;;;;;5000462;28;20054;-65
2024/03/14 06:59:04;;;;;;;5.03;4.50;;;9.50;99.90;;;;;;4991157;28;20133;-65
2024/03/14 07:01:33;;;;;;;5.88;5.22;;;9.60;99.90;;;;;;4981984;28;20146;-65
2024/03/14 07:04:01;;;;;;;7.68;6.03;;;9.50;99.90;;;;;;4999638;28;20559;-65
2024/03/14 07:06:28;;;;;;;6.57;5.07;;;9.60;99.90;;;;;;4998381;28;20049;-65
2024/03/14 07:08:57;;;;;;;8.90;5.85;;;9.60;99.90;;;;;;5000092;28;20053;-65
2024/03/14 07:11:26;;;;;;;5.65;5.07;;;9.60;99.90;;;;;;5000217;28;20119;-65
2024/03/14 07:13:54;;;;;;;11.82;5.97;;;9.70;99.90;;;;;;4977559;28;20113;-65
2024/03/14 07:16:21;;;;;;;11.88;6.50;;;9.80;99.90;;;;;;4974620;28;20057;-65
2024/03/14 07:18:48;;;;;;;6.38;5.68;;;9.90;99.90;;;;;;4983934;28;20121;-65
2024/03/14 07:21:16;;;;;;;10.20;6.15;;;10.00;99.90;;;;;;4968005;28;20085;-65
2024/03/14 07:23:47;;;;;;;8.82;6.30;;;10.00;99.90;;;;;;4983627;28;20042;-65
2024/03/14 07:26:24;;;;;;;8.27;5.78;;;10.10;99.90;;;;;;4984960;28;20054;-65
2024/03/14 07:28:55;;;;;;;6.95;4.75;;;10.20;99.90;;;;;;4976844;28;20043;-65
2024/03/14 07:31:21;;;;;;;8.48;6.32;;;10.30;99.90;;;;;;4983855;28;20046;-65
2024/03/14 07:33:48;;;;;;;7.28;5.60;;;10.40;99.90;;;;;;4983869;28;20049;-65
2024/03/14 07:36:15;;;;;;;10.50;6.00;;;10.50;99.90;;;;;;4984609;28;20575;-65
2024/03/14 07:38:49;;;;;;;9.85;6.32;;;10.60;99.90;;;;;;4982440;28;20050;-65
2024/03/14 07:41:23;;;;;;;14.70;6.10;;;10.70;99.90;;;;;;4985953;28;20409;-66
2024/03/14 07:43:53;;;;;;;8.27;6.93;;;10.70;99.90;;;;;;4983722;28;20091;-65
2024/03/14 07:46:19;;;;;;;;;;;10.70;99.90;;;;;;4984250;28;20050;-65
2024/03/14 07:48:48;;;;;;;9.15;6.25;;;10.90;99.90;;;;;;4982153;28;19937;-65
2024/03/14 07:51:16;;;;;;;7.40;6.07;;;11.00;99.90;;;;;;4984127;28;20046;-65
2024/03/14 07:53:43;;;;;;;11.77;6.85;;;11.10;99.90;;;;;;4983165;28;20061;-65
2024/03/14 07:56:12;;;;;;;13.63;7.35;;;11.20;99.90;;;;;;4983417;28;20507;-65
2024/03/14 07:58:39;;;;;;;9.15;6.38;;;11.40;99.90;;;;;;4983517;28;20473;-65
2024/03/14 08:01:09;;;;;;;9.55;6.18;;;11.50;99.90;;;;;;4980884;28;20044;-65
2024/03/14 08:03:42;;;;;;;;;;;11.70;99.90;;;;;;4981962;28;20046;-65
2024/03/14 08:06:10;;;;;;;6.88;5.15;;;11.80;99.90;;;;;;4983210;28;20049;-65
2024/03/14 08:08:39;;;;;;;9.20;6.25;;;11.90;99.90;;;;;;4980901;28;20505;-65
2024/03/14 08:11:09;;;;;;;9.85;5.55;;;12.00;99.90;;;;;;4984366;28;20116;-65
2024/03/14 08:13:34;;;;;;;11.00;7.30;;;12.00;99.90;;;;;;4981516;28;20198;-65
2024/03/14 08:16:19;;;;;;;12.57;7.13;;;12.00;99.90;;;;;;4984263;28;20480;-65
2024/03/14 08:18:46;;;;;;;10.93;7.47;;;12.00;99.90;;;;;;4981543;28;20720;-65
2024/03/14 08:21:13;;;;;;;8.30;7.10;;;12.00;99.90;;;;;;4984789;28;20039;-65
2024/03/14 08:23:42;;;;;;;8.18;5.50;;;12.00;99.90;;;;;;4981162;28;20046;-65
2024/03/14 08:26:08;;;;;;;6.65;4.90;;;12.00;99.90;;;;;;4984448;28;20046;-65
2024/03/14 08:28:38;;;;;;;10.63;7.30;;;11.90;99.90;;;;;;4983371;28;20050;-65
2024/03/14 08:31:06;;;;;;;13.25;6.20;;;11.90;99.90;;;;;;4979656;28;20523;-65
2024/03/14 08:33:35;;;;;;;13.18;6.82;;;11.90;99.90;;;;;;4984500;28;20049;-65
2024/03/14 08:36:05;;;;;;;7.05;5.32;;;11.90;99.90;;;;;;4977270;28;20492;-65
2024/03/14 08:38:30;;;;;;;4.25;3.90;;;11.90;99.90;;;;;;4983228;28;20046;-65
2024/03/14 08:40:57;;;;;;;9.32;5.85;;;11.90;99.90;;;;;;4982228;28;20050;-65
2024/03/14 08:43:24;;;;;;;8.30;7.03;;;11.90;99.90;;;;;;4979332;28;20591;-65
2024/03/14 08:45:52;;;;;;;7.72;5.97;;;12.00;99.90;;;;;;4983156;28;20042;-64
2024/03/14 08:48:23;;;;;;;11.52;7.28;;;12.00;99.90;;;;;;4981812;28;20054;-65
2024/03/14 08:50:49;;;;;;;7.57;4.78;;;12.00;99.90;;;;;;4977552;28;20046;-65
2024/03/14 08:53:15;;;;;;;7.55;5.70;;;12.10;99.90;;;;;;4981287;28;20045;-65
2024/03/14 08:55:54;;;;;;;9.82;5.43;;;12.10;99.90;;;;;;4983314;28;20161;-65
2024/03/14 08:58:26;;;;;;;8.90;7.25;;;12.20;99.90;;;;;;4983239;28;20058;-65
2024/03/14 09:00:53;;;;;;;12.52;6.10;;;12.20;99.90;;;;;;4980524;28;20054;-64
2024/03/14 09:03:19;;;;;;;11.82;8.25;;;12.20;99.90;;;;;;4983129;28;20060;-65
2024/03/14 09:05:45;;;;;;;13.05;7.35;;;12.20;99.90;;;;;;4980105;28;20042;-65
2024/03/14 09:08:11;;;;;;;10.70;7.55;;;12.10;99.90;;;;;;4984576;28;20047;-65
2024/03/14 09:10:38;;;;;;;11.82;6.82;;;12.10;99.90;;;;;;4981296;28;20097;-65
2024/03/14 09:13:09;;;;;;;10.20;6.45;;;12.20;99.90;;;;;;4987255;28;20554;-65
2024/03/14 09:15:36;;;;;;;11.80;8.25;;;12.30;99.90;;;;;;5000504;28;20357;-64
2024/03/14 09:18:03;;;;;;;9.05;6.47;;;12.30;99.90;;;;;;4990123;28;20046;-65
2024/03/14 09:20:28;;;;;;;12.38;6.57;;;12.40;99.90;;;;;;5002829;28;20121;-64
2024/03/14 09:22:55;;;;;;;12.30;5.93;;;12.40;99.90;;;;;;5000788;28;20937;-65
2024/03/14 09:25:22;;;;;;;10.48;7.07;;;12.50;99.90;;;;;;4979738;28;20141;-65
2024/03/14 09:27:48;;;;;;;9.98;6.88;;;12.60;99.90;;;;;;4997915;28;20139;-64
2024/03/14 09:30:14;;;;;;;11.70;7.03;;;12.70;99.90;;;;;;5002731;28;20057;-65
2024/03/14 09:32:41;;;;;;;10.52;7.82;;;12.90;99.90;;;;;;4998588;28;20042;-64
2024/03/14 09:35:12;;;;;;;11.13;6.97;;;13.00;99.90;;;;;;5001570;28;20057;-64
2024/03/14 09:37:37;;;;;;;;;;;13.20;99.90;;;;;;4985366;28;20440;-65
2024/03/14 09:40:07;;;;;;;13.48;7.80;;;13.30;99.90;;;;;;4996163;28;19925;-64
2024/03/14 09:42:33;;;;;;;12.15;6.65;;;13.40;99.90;;;;;;5003720;28;20045;-65
2024/03/14 09:45:01;;;;;;;9.18;7.53;;;13.50;99.90;;;;;;4999944;28;20050;-64
2024/03/14 09:47:37;;;;;;;9.55;6.68;;;13.60;99.90;;;;;;5002927;28;20574;-64
2024/03/14 09:50:05;;;;;;;9.75;7.13;;;13.60;99.90;;;;;;4997895;28;20504;-64
2024/03/14 09:52:35;;;;;;;10.05;6.90;;;13.70;99.90;;;;;;4993166;28;20046;-64
2024/03/14 09:55:03;;;;;;;10.90;7.38;;;13.80;99.90;;;;;;4997008;28;20512;-64
2024/03/14 09:57:32;;;;;;;13.50;7.57;;;13.90;99.90;;;;;;4973252;28;20125;-64
2024/03/14 09:59:58;;;;;;;12.57;7.63;;;13.90;99.90;;;;;;5001901;28;20088;-65
2024/03/14 10:02:27;;;;;;;11.50;7.55;;;13.90;99.90;;;;;;5001235;28;20053;-64
2024/03/14 10:04:53;;;;;;;11.02;7.85;;;13.90;99.90;;;;;;4995008;28;20046;-64
2024/03/14 10:07:19;;;;;;;10.27;8.57;;;13.90;99.90;;;;;;4984245;28;20073;-64
2024/03/14 10:09:44;;;;;;;11.02;7.03;;;13.90;99.90;;;;;;5001186;28;20508;-64
2024/03/14 10:12:14;;;;;;;9.32;6.43;;;13.90;99.90;;;;;;5002211;28;20041;-64
2024/03/14 10:14:41;;;;;;;9.02;6.30;;;13.90;99.90;;;;;;4986874;28;20405;-64
2024/03/14 10:17:12;;;;;;;11.13;7.43;;;13.80;99.90;;;;;;4999348;28;20057;-64
2024/03/14 10:19:38;;;;;;;7.90;6.72;;;13.80;99.90;;;;;;4982470;28;20408;-64
2024/03/14 10:22:07;;;;;;;13.82;7.35;;;13.90;99.90;;;;;;5002519;28;20041;-64
2024/03/14 10:24:36;;;;;;;9.63;6.80;;;13.90;99.90;;;;;;4983189;28;20065;-64
2024/03/14 10:27:04;;;;;;;13.10;7.38;;;14.00;99.90;;;;;;5001430;28;20045;-65
2024/03/14 10:29:33;;;;;;;10.57;6.85;;;13.90;99.90;;;;;;5002433;28;20053;-64
2024/03/14 10:32:00;;;;;;;11.90;6.70;;;13.90;99.90;;;;;;4999026;28;20119;-64
2024/03/14 10:34:26;;;;;;;10.05;6.28;;;14.00;99.90;;;;;;5001707;28;20416;-64
2024/03/14 10:36:55;;;;;;;8.45;6.43;;;14.00;99.90;;;;;;4993261;28;20133;-64
2024/03/14 10:39:25;;;;;;;9.35;6.47;;;14.00;99.90;;;;;;5001852;28;20085;-64
2024/03/14 10:41:53;;;;;;;10.63;6.85;;;14.10;99.90;;;;;;4983399;28;20156;-64
2024/03/14 10:44:21;;;;;;;12.40;7.10;;;14.10;99.90;;;;;;4998920;28;20054;-65
2024/03/14 10:46:51;;;;;;;10.38;7.03;;;14.30;99.90;;;;;;4999042;28;20147;-64
2024/03/14 10:49:24;;;;;;;7.63;6.60;;;14.30;99.90;;;;;;5000291;28;20145;-65
2024/03/14 10:51:51;;;;;;;8.13;6.38;;;14.40;99.90;;;;;;4987814;28;20080;-64
2024/03/14 10:54:22;;;;;;;8.70;6.43;;;14.40;99.90;;;;;;5004864;28;20037;-64
2024/03/14 10:56:52;;;;;;;10.80;7.10;;;14.40;99.90;;;;;;4984207;28;20060;-64
2024/03/14 10:59:22;;;;;;;8.77;6.78;;;14.60;99.90;;;;;;4996304;28;20054;-64
2024/03/14 11:01:50;;;;;;;9.95;7.10;;;14.80;99.90;;;;;;5004686;28;20038;-64
2024/03/14 11:04:17;;;;;;;9.55;6.80;;;14.80;99.90;;;;;;5003298;28;20050;-64
2024/03/14 11:06:47;;;;;;;8.43;6.57;;;15.00;99.90;;;;;;5003137;28;20460;-64
2024/03/14 11:09:15;;;;;;;10.48;5.80;;;15.10;99.90;;;;;;4996655;28;20129;-64
2024/03/14 11:11:57;;;;;;;6.38;5.70;;;15.20;99.90;;;;;;4995592;28;20085;-64
2024/03/14 11:14:33;;;;;;;8.98;5.53;;;15.30;99.90;;;;;;5005361;28;20050;-64
2024/03/14 11:17:01;;;;;;;8.40;5.43;;;15.30;99.90;;;;;;4999246;28;20385;-64
2024/03/14 11:19:30;;;;;;;6.32;5.57;;;15.30;99.90;;;;;;4997942;28;20048;-65
2024/03/14 11:21:57;;;;;;;12.32;6.47;;;15.30;99.90;;;;;;5000069;28;20077;-64
2024/03/14 11:24:29;;;;;;;8.60;6.75;;;15.50;99.90;;;;;;5003026;28;20061;-64
2024/03/14 11:26:58;;;;;;;8.50;5.20;;;15.70;99.90;;;;;;5005146;28;20057;-64
2024/03/14 11:29:26;;;;;;;6.03;4.20;;;15.70;99.90;;;;;;5003416;28;20527;-64
2024/03/14 11:32:20;;;;;;;11.13;6.28;;;15.60;99.90;;;;;;5003696;28;20488;-64
2024/03/14 11:34:49;;;;;;;8.65;5.70;;;15.60;99.90;;;;;;5002611;28;20046;-64
2024/03/14 11:37:15;;;;;;;7.88;5.80;;;15.50;99.90;;;;;;5003110;28;20117;-64
2024/03/14 11:39:46;;;;;;;6.40;4.90;;;15.50;99.90;;;;;;5000706;28;20137;-64
2024/03/14 11:42:16;;;;;;;10.18;5.10;;;15.50;99.90;;;;;;4998366;28;20267;-64
2024/03/14 11:44:46;;;;;;;6.28;5.03;;;15.50;99.90;;;;;;5001696;28;20567;-62
2024/03/14 11:47:16;;;;;;;4.90;4.47;;;15.60;99.90;;;;;;5003504;28;20053;-62
2024/03/14 11:49:43;;;;;;;6.10;5.40;;;15.70;99.90;;;;;;4983566;28;20510;-62
2024/03/14 11:52:14;;;;;;;5.03;4.55;;;15.90;99.90;;;;;;5004739;28;20050;-62
2024/03/14 11:54:41;;;;;;;7.82;5.65;;;16.00;99.90;;;;;;5002896;28;20050;-62
2024/03/14 11:57:15;;;;;;;3.75;3.00;;;16.10;99.90;;;;;;4980601;28;20084;-62
2024/03/14 11:59:41;;;;;;;5.03;3.33;;;16.10;99.90;;;;;;4969535;28;20516;-62
2024/03/14 12:02:10;;;;;;;8.18;5.22;;;16.10;99.90;;;;;;4979871;28;20052;-62
2024/03/14 12:04:35;;;;;;;8.35;4.82;;;16.00;99.90;;;;;;5005001;28;20452;-62
2024/03/14 12:07:07;;;;;;;6.22;4.68;;;15.90;99.90;;;;;;5002087;28;20049;-62
2024/03/14 12:09:35;;;;;;;6.32;4.18;;;15.90;99.90;;;;;;5004983;28;20111;-62
2024/03/14 12:12:02;;;;;;;4.75;4.25;;;15.80;99.90;;;;;;5001416;28;20045;-62
2024/03/14 12:14:29;;;;;;;6.43;5.22;;;15.80;99.90;;;;;;5003512;28;20630;-62
2024/03/14 12:16:55;;;;;;;6.65;4.63;;;15.70;99.90;;;;;;5003034;28;20076;-62
2024/03/14 12:19:20;;;;;;;7.25;5.30;;;15.70;99.90;;;;;;5003804;28;20042;-62
2024/03/14 12:21:52;;;;;;;6.90;4.75;;;15.80;99.90;;;;;;4978617;28;20459;-62
2024/03/14 12:24:18;;;;;;;5.32;4.68;;;15.80;99.90;;;;;;4997718;28;20107;-62
2024/03/14 12:26:44;;;;;;;7.72;4.40;;;15.80;99.90;;;;;;4986361;28;20038;-63
2024/03/14 12:29:11;;;;;;;5.32;4.82;;;15.90;99.90;;;;;;5001417;28;20508;-62
2024/03/14 12:31:37;;;;;;;7.85;4.70;;;16.00;99.90;;;;;;5002564;28;20045;-62
2024/03/14 12:34:05;;;;;;;7.35;4.22;;;16.20;99.90;;;;;;4969297;28;20060;-62
2024/03/14 12:36:32;;;;;;;5.93;3.85;;;16.30;99.90;;;;;;4984640;28;20508;-62
2024/03/14 12:39:00;;;;;;;3.72;2.80;;;16.40;99.90;;;;;;4986759;28;20041;-62
2024/03/14 12:41:27;;;;;;;6.57;3.80;;;16.30;99.90;;;;;;5001736;28;20247;-62
2024/03/14 12:43:53;;;;;;;4.82;4.38;;;16.20;99.90;;;;;;5003503;28;20133;-62
2024/03/14 12:46:22;;;;;;;5.45;3.50;;;16.10;99.90;;;;;;4998549;28;20045;-62
2024/03/14 12:48:49;;;;;;;7.20;4.90;;;16.10;99.90;;;;;;5003707;28;20084;-62
2024/03/14 12:51:22;;;;;;;5.10;4.60;;;16.10;99.90;;;;;;5001291;28;20034;-62
2024/03/14 12:53:55;;;;;;;5.25;3.78;;;16.00;99.90;;;;;;5000979;28;20046;-62